Time;durP1;ratioP1;P1;durP2;ratioP2;P2;SDS_P1;SDS_P2;PMS_P1;PMS_P2;Temp;Humidity;BMP_temperature;BMP_pressure;BME280_temperature;BME280_humidity;BME280_pressure;Samples;Min_cycle;Max_cycle;Signal;HPM_P1;HPM_P2
2020/12/29 00:01:52;;;;;;;14.27;3.50;;;27.00;82.60;;;;;;5998148;23;20028;-93
2020/12/29 00:09:56;;;;;;;12.52;2.47;;;27.00;83.30;;;;;;6019378;23;20097;-88
2020/12/29 00:12:23;;;;;;;14.88;3.42;;;27.00;83.50;;;;;;6026306;23;20024;-94
2020/12/29 00:14:58;;;;;;;11.80;2.88;;;26.80;84.30;;;;;;6001308;23;20015;-92
2020/12/29 00:17:47;;;;;;;10.07;2.25;;;26.70;84.00;;;;;;6028329;23;19988;-90
2020/12/29 00:20:50;;;;;;;7.43;2.22;;;26.70;84.90;;;;;;6006318;23;20064;-90
2020/12/29 00:23:21;;;;;;;7.22;2.25;;;26.70;84.50;;;;;;5884579;24;20025;-92
2020/12/29 00:25:58;;;;;;;8.70;2.60;;;26.60;83.80;;;;;;5993296;23;20007;-90
2020/12/29 00:28:28;;;;;;;11.05;4.55;;;26.70;84.90;;;;;;6004251;23;20004;-92
2020/12/29 00:31:12;;;;;;;;;;;;;;;;;;;;;
2020/12/29 00:34:12;;;;;;;;;;;;;;;;;;;;;
2020/12/29 00:36:50;;;;;;;;;;;;;;;;;;;;;
2020/12/29 00:39:25;;;;;;;14.85;5.57;;;26.70;84.00;;;;;;6034060;23;20007;-89
2020/12/29 00:42:25;;;;;;;29.30;16.77;;;26.50;84.60;;;;;;6026461;23;20003;-88
2020/12/29 00:45:04;;;;;;;;;;;;;;;;;;;;;
2020/12/29 00:47:32;;;;;;;12.60;5.97;;;26.50;84.80;;;;;;6046605;23;20200;-91
2020/12/29 00:50:05;;;;;;;12.07;3.63;;;26.50;84.80;;;;;;6024336;23;19999;-92
2020/12/29 00:52:31;;;;;;;7.53;3.00;;;26.40;84.60;;;;;;6005815;23;20015;-92
2020/12/29 00:55:07;;;;;;;10.48;3.97;;;26.40;85.00;;;;;;6056680;23;19995;-89
2020/12/29 00:57:33;;;;;;;6.95;1.70;;;26.40;84.30;;;;;;6031184;23;20002;-91
2020/12/29 01:00:07;;;;;;;5.05;2.53;;;26.40;84.20;;;;;;6032435;23;20003;-91
2020/12/29 01:02:44;;;;;;;8.15;1.88;;;26.30;84.50;;;;;;6030850;23;19995;-91
2020/12/29 01:05:16;;;;;;;4.22;2.20;;;26.30;84.10;;;;;;5960015;23;20039;-91
2020/12/29 01:08:06;;;;;;;4.13;2.00;;;26.20;84.00;;;;;;6054345;23;20079;-90
2020/12/29 01:11:01;;;;;;;9.13;2.30;;;26.20;84.60;;;;;;6028984;23;20015;-91
2020/12/29 01:13:28;;;;;;;5.43;2.20;;;26.20;85.20;;;;;;6032528;23;20003;-91
2020/12/29 01:16:06;;;;;;;5.72;2.10;;;26.10;84.60;;;;;;6005976;23;20038;-93
2020/12/29 01:19:27;;;;;;;5.18;2.40;;;26.10;85.40;;;;;;6032163;23;19999;-92
2020/12/29 01:21:57;;;;;;;8.15;2.20;;;26.00;85.30;;;;;;5995620;23;20200;-93
2020/12/29 01:25:02;;;;;;;6.70;2.45;;;26.10;84.90;;;;;;5972104;24;20300;-94
2020/12/29 01:30:38;;;;;;;5.15;2.00;;;26.00;85.00;;;;;;5995922;24;20053;-92
2020/12/29 01:33:54;;;;;;;7.35;3.45;;;26.00;85.70;;;;;;5995835;24;20034;-93
2020/12/29 01:36:27;;;;;;;6.00;2.92;;;25.80;85.70;;;;;;5949199;23;20097;-91
2020/12/29 01:39:14;;;;;;;3.70;2.33;;;25.90;85.40;;;;;;5995345;23;20012;-91
2020/12/29 01:41:43;;;;;;;3.88;1.80;;;25.80;86.50;;;;;;5975263;24;20310;-92
2020/12/29 01:44:15;;;;;;;5.85;2.40;;;25.90;85.30;;;;;;5970716;24;20285;-91
2020/12/29 01:46:48;;;;;;;2.87;2.53;;;25.80;86.40;;;;;;5995344;24;20020;-90
2020/12/29 01:49:21;;;;;;;3.72;2.10;;;25.80;86.00;;;;;;5997569;24;20237;-92
2020/12/29 01:51:48;;;;;;;8.55;2.08;;;25.80;86.50;;;;;;5989523;23;20272;-94
2020/12/29 01:54:15;;;;;;;6.72;2.88;;;25.80;85.90;;;;;;6055641;23;20043;-87
2020/12/29 01:56:42;;;;;;;2.75;1.92;;;25.80;85.80;;;;;;6028008;23;20019;-89
2020/12/29 01:59:12;;;;;;;6.72;2.10;;;25.90;86.30;;;;;;6028388;23;20145;-90
2020/12/29 02:02:06;;;;;;;4.25;2.00;;;25.80;86.20;;;;;;6029142;23;20008;-88
2020/12/29 02:04:34;;;;;;;4.68;1.88;;;25.80;85.90;;;;;;5997287;24;20019;-92
2020/12/29 02:07:06;;;;;;;4.82;1.75;;;25.80;85.80;;;;;;5974320;24;20122;-89
2020/12/29 02:09:57;;;;;;;;;;;25.80;85.20;;;;;;5990509;24;20023;-91
2020/12/29 02:13:23;;;;;;;3.95;1.80;;;25.80;86.10;;;;;;5969655;24;19906;-93
2020/12/29 02:21:07;;;;;;;3.17;1.48;;;25.80;85.30;;;;;;6081421;23;20108;-91
2020/12/29 02:27:18;;;;;;;4.72;1.85;;;25.60;86.40;;;;;;6015709;23;20041;-88
2020/12/29 02:29:46;;;;;;;2.42;1.58;;;25.60;86.20;;;;;;6060304;23;20076;-90
2020/12/29 02:43:03;;;;;;;7.55;5.50;;;25.60;85.90;;;;;;6060901;23;20025;-89
2020/12/29 02:51:16;;;;;;;13.18;7.18;;;25.50;86.30;;;;;;6027661;23;20015;-86
2020/12/29 02:59:08;;;;;;;13.18;8.18;;;25.50;86.30;;;;;;6124930;23;20007;-89
2020/12/29 03:01:44;;;;;;;13.35;6.50;;;25.40;86.70;;;;;;6100268;23;20011;-89
2020/12/29 03:04:12;;;;;;;7.78;4.38;;;25.40;87.40;;;;;;6087697;23;20005;-87
2020/12/29 03:06:46;;;;;;;6.80;4.00;;;25.30;87.30;;;;;;6089988;23;20030;-89
2020/12/29 03:09:19;;;;;;;6.85;3.40;;;25.40;87.00;;;;;;6086400;23;20024;-89
2020/12/29 03:12:15;;;;;;;6.78;3.60;;;25.30;87.50;;;;;;6085587;23;20022;-90
2020/12/29 03:14:45;;;;;;;4.05;2.63;;;25.20;87.50;;;;;;6062121;23;20011;-91
2020/12/29 03:17:17;;;;;;;6.00;2.40;;;25.20;88.00;;;;;;6110869;23;20038;-89
2020/12/29 03:20:28;;;;;;;;;;;;;;;;;;;;;
2020/12/29 03:22:53;;;;;;;10.70;3.30;;;25.10;88.50;;;;;;6103499;23;20041;-89
2020/12/29 03:25:23;;;;;;;19.88;8.52;;;25.10;88.00;;;;;;6085973;23;20042;-90
2020/12/29 03:27:51;;;;;;;18.23;7.95;;;25.20;88.00;;;;;;6108309;23;20009;-91
2020/12/29 03:30:33;;;;;;;12.27;5.95;;;25.20;87.70;;;;;;6083700;23;20013;-90
2020/12/29 03:37:36;;;;;;;8.57;4.35;;;25.20;88.30;;;;;;5955717;24;20020;-90
2020/12/29 03:40:15;;;;;;;7.93;4.65;;;25.20;87.10;;;;;;5989836;23;20015;-89
2020/12/29 03:43:12;;;;;;;4.97;2.67;;;25.20;87.30;;;;;;6001245;23;20011;-89
2020/12/29 03:45:55;;;;;;;4.97;2.42;;;25.20;86.90;;;;;;5964574;24;20008;-91
2020/12/29 03:48:26;;;;;;;4.97;2.33;;;25.30;86.80;;;;;;5963284;24;20005;-89
2020/12/29 03:50:53;;;;;;;4.45;1.75;;;25.30;86.90;;;;;;5961182;24;20008;-90
2020/12/29 03:53:23;;;;;;;2.33;1.58;;;25.30;86.60;;;;;;5968364;24;20000;-90
2020/12/29 03:55:51;;;;;;;2.33;1.60;;;25.30;86.60;;;;;;5967978;24;20027;-90
2020/12/29 03:58:23;;;;;;;4.97;1.92;;;25.30;86.50;;;;;;5968529;24;20004;-90
2020/12/29 04:03:46;;;;;;;2.90;1.70;;;25.40;86.40;;;;;;6018189;23;20035;-89
2020/12/29 04:06:19;;;;;;;4.85;1.77;;;25.40;85.80;;;;;;6028677;23;20007;-90
2020/12/29 04:08:46;;;;;;;2.70;1.75;;;25.50;85.90;;;;;;6057304;23;20072;-89
2020/12/29 04:13:43;;;;;;;3.28;1.92;;;25.40;85.50;;;;;;6081690;23;20051;-89
2020/12/29 04:16:11;;;;;;;3.10;1.63;;;25.30;85.60;;;;;;6055009;23;19999;-89
2020/12/29 04:18:44;;;;;;;2.30;1.55;;;25.30;85.90;;;;;;6054366;23;20006;-89
2020/12/29 04:21:12;;;;;;;3.33;1.80;;;25.30;86.40;;;;;;6054486;23;19995;-91
2020/12/29 04:23:51;;;;;;;3.13;1.90;;;25.30;86.90;;;;;;6054324;23;20014;-92
2020/12/29 04:26:21;;;;;;;4.75;1.90;;;25.20;85.90;;;;;;6053971;23;20005;-91
2020/12/29 04:28:47;;;;;;;5.07;1.60;;;25.20;85.70;;;;;;6052399;23;20003;-90
2020/12/29 04:31:15;;;;;;;3.00;1.60;;;25.10;86.60;;;;;;6053180;23;20002;-90
2020/12/29 04:33:41;;;;;;;4.32;2.00;;;25.10;86.20;;;;;;6053266;23;20339;-90
2020/12/29 04:36:08;;;;;;;4.20;1.88;;;25.10;86.30;;;;;;6078740;23;20275;-90
2020/12/29 04:38:36;;;;;;;3.40;1.70;;;25.10;86.00;;;;;;6079232;23;20187;-90
2020/12/29 04:41:02;;;;;;;4.32;1.70;;;25.10;86.10;;;;;;6078628;23;20002;-90
2020/12/29 04:43:32;;;;;;;2.50;1.70;;;25.10;86.00;;;;;;6051028;23;20062;-91
2020/12/29 04:46:04;;;;;;;2.65;1.60;;;25.00;86.00;;;;;;6052886;23;20023;-90
2020/12/29 04:48:31;;;;;;;;;;;25.00;86.00;;;;;;6053925;23;20007;-91
2020/12/29 04:51:07;;;;;;;3.00;1.20;;;25.00;86.00;;;;;;6053218;23;20093;-91
2020/12/29 04:53:35;;;;;;;3.25;1.40;;;24.90;86.30;;;;;;6053713;23;20007;-91
2020/12/29 04:56:09;;;;;;;3.78;1.60;;;24.90;86.60;;;;;;6053376;23;20314;-90
2020/12/29 04:58:36;;;;;;;2.15;1.45;;;24.90;86.60;;;;;;6053602;23;19999;-90
2020/12/29 05:01:09;;;;;;;3.05;1.23;;;24.90;86.40;;;;;;6053242;23;19999;-91
2020/12/29 05:03:43;;;;;;;1.48;1.15;;;24.80;86.40;;;;;;6053045;23;20032;-91
2020/12/29 05:06:10;;;;;;;3.17;1.50;;;24.80;86.40;;;;;;6053055;23;20074;-90
2020/12/29 05:08:37;;;;;;;2.60;1.30;;;24.80;86.50;;;;;;6052782;23;20006;-91
2020/12/29 05:11:04;;;;;;;1.30;1.08;;;24.80;86.50;;;;;;6078285;23;19995;-90
2020/12/29 05:13:30;;;;;;;1.63;1.13;;;24.80;86.10;;;;;;6076467;23;20211;-90
2020/12/29 05:15:57;;;;;;;2.55;1.45;;;24.80;86.10;;;;;;6052733;23;20287;-90
2020/12/29 05:18:26;;;;;;;3.50;1.50;;;24.80;86.20;;;;;;6053224;23;20006;-90
2020/12/29 05:20:53;;;;;;;2.22;1.70;;;24.80;86.40;;;;;;6078201;23;20150;-90
2020/12/29 05:23:20;;;;;;;6.72;1.45;;;24.80;86.10;;;;;;6053016;23;20184;-90
2020/12/29 05:25:49;;;;;;;2.95;1.50;;;24.70;86.50;;;;;;6076766;23;20002;-90
2020/12/29 05:28:16;;;;;;;3.63;1.45;;;24.70;86.50;;;;;;6053147;23;20066;-90
2020/12/29 05:30:42;;;;;;;3.88;1.58;;;24.60;86.80;;;;;;6078391;23;20067;-90
2020/12/29 05:33:20;;;;;;;4.68;1.42;;;24.50;86.90;;;;;;6076977;23;20026;-91
2020/12/29 05:35:46;;;;;;;2.40;1.45;;;24.50;86.80;;;;;;6052634;23;20007;-89
2020/12/29 05:38:17;;;;;;;3.85;1.40;;;24.50;86.60;;;;;;6053186;23;20275;-90
2020/12/29 05:40:46;;;;;;;2.42;1.40;;;24.50;86.70;;;;;;6078460;23;20051;-90
2020/12/29 05:43:14;;;;;;;2.08;1.50;;;24.50;86.20;;;;;;6054853;23;19995;-91
2020/12/29 05:45:41;;;;;;;3.17;1.30;;;24.50;86.60;;;;;;6080116;23;20010;-90
2020/12/29 05:48:08;;;;;;;2.75;1.15;;;24.50;86.50;;;;;;6080859;23;20214;-91
2020/12/29 05:50:37;;;;;;;3.63;1.25;;;24.40;86.70;;;;;;6053908;23;20030;-91
2020/12/29 05:53:07;;;;;;;4.20;1.17;;;24.50;86.60;;;;;;6031524;23;20002;-91
2020/12/29 05:55:34;;;;;;;2.65;1.30;;;24.50;86.30;;;;;;6053993;23;20003;-91
2020/12/29 05:58:09;;;;;;;1.45;1.13;;;24.50;86.20;;;;;;6080458;23;20228;-90
2020/12/29 06:00:41;;;;;;;2.05;1.20;;;24.50;85.60;;;;;;6055163;23;20063;-91
2020/12/29 06:03:09;;;;;;;3.83;1.10;;;24.60;85.50;;;;;;6080780;23;20271;-89
2020/12/29 06:05:39;;;;;;;1.30;0.85;;;24.60;85.40;;;;;;6054521;23;20054;-90
2020/12/29 06:08:07;;;;;;;3.10;1.20;;;24.60;84.70;;;;;;6080228;23;19999;-91
2020/12/29 06:10:36;;;;;;;4.15;1.30;;;24.60;84.70;;;;;;6078024;23;20046;-90
2020/12/29 06:13:06;;;;;;;6.38;1.27;;;24.60;84.80;;;;;;6054909;23;20082;-91
2020/12/29 06:15:37;;;;;;;2.88;1.42;;;24.60;84.50;;;;;;6054335;23;19998;-90
2020/12/29 06:18:05;;;;;;;1.20;1.00;;;24.60;83.60;;;;;;6054854;23;19999;-90
2020/12/29 06:20:41;;;;;;;1.83;1.20;;;24.60;84.20;;;;;;6054987;23;19995;-90
2020/12/29 06:23:08;;;;;;;2.13;1.30;;;24.60;84.70;;;;;;6054757;23;20302;-89
2020/12/29 06:25:37;;;;;;;3.40;1.27;;;24.60;83.80;;;;;;6054684;23;20008;-90
2020/12/29 06:28:07;;;;;;;3.63;1.27;;;24.60;83.50;;;;;;6055007;23;20003;-91
2020/12/29 06:30:37;;;;;;;3.58;1.25;;;24.60;84.00;;;;;;6055238;23;19995;-90
2020/12/29 06:33:05;;;;;;;3.85;1.67;;;24.60;83.00;;;;;;6055778;23;20007;-91
2020/12/29 06:35:31;;;;;;;2.75;1.20;;;24.60;82.80;;;;;;6054801;23;20322;-90
2020/12/29 06:38:04;;;;;;;2.47;1.52;;;24.60;83.30;;;;;;6054794;23;20010;-90
2020/12/29 06:40:33;;;;;;;5.50;1.20;;;24.70;82.90;;;;;;6054690;23;19998;-90
2020/12/29 06:43:00;;;;;;;1.95;1.27;;;24.60;83.10;;;;;;6079984;23;20290;-90
2020/12/29 06:45:33;;;;;;;6.13;1.10;;;24.60;82.50;;;;;;6054254;23;20030;-91
2020/12/29 06:48:01;;;;;;;1.33;1.13;;;24.60;83.40;;;;;;6055043;23;20034;-90
2020/12/29 06:50:30;;;;;;;3.35;1.10;;;24.50;83.50;;;;;;6054189;23;20066;-90
2020/12/29 06:53:04;;;;;;;3.70;1.17;;;24.50;84.70;;;;;;6054281;23;20006;-91
2020/12/29 06:55:45;;;;;;;3.15;1.30;;;24.40;84.20;;;;;;6054387;23;19994;-91
2020/12/29 06:58:32;;;;;;;3.92;1.45;;;24.40;85.00;;;;;;6079860;23;20120;-90
2020/12/29 07:01:20;;;;;;;2.45;1.30;;;24.40;85.20;;;;;;6078256;23;19999;-92
2020/12/29 07:03:59;;;;;;;1.40;1.08;;;24.50;85.30;;;;;;6054821;23;20010;-91
2020/12/29 07:06:30;;;;;;;5.75;1.45;;;24.50;85.10;;;;;;6079323;23;19991;-91
2020/12/29 07:09:25;;;;;;;10.07;1.45;;;24.20;86.40;;;;;;6054210;23;19999;-91
2020/12/29 07:12:20;;;;;;;3.38;1.20;;;24.20;86.60;;;;;;6079639;23;20019;-92
2020/12/29 07:14:55;;;;;;;1.40;1.10;;;24.10;87.30;;;;;;6035879;23;20005;-91
2020/12/29 07:17:25;;;;;;;4.35;1.50;;;24.20;86.70;;;;;;6079675;23;20263;-90
2020/12/29 07:19:55;;;;;;;3.13;1.38;;;24.20;86.40;;;;;;6053995;23;20192;-91
2020/12/29 07:22:21;;;;;;;2.33;1.23;;;24.20;87.10;;;;;;6079149;23;20010;-90
2020/12/29 07:24:49;;;;;;;3.25;1.20;;;24.10;88.70;;;;;;6079363;23;20091;-91
2020/12/29 07:27:20;;;;;;;2.25;1.42;;;24.10;88.80;;;;;;6054247;23;20210;-91
2020/12/29 07:30:07;;;;;;;4.95;1.73;;;24.10;90.40;;;;;;6053973;23;20370;-91
2020/12/29 07:32:33;;;;;;;2.95;1.55;;;23.80;90.60;;;;;;6054335;23;20110;-91
2020/12/29 07:35:01;;;;;;;4.90;1.65;;;23.90;90.10;;;;;;6053939;23;20078;-91
2020/12/29 07:37:30;;;;;;;3.35;1.60;;;23.90;90.40;;;;;;6054158;23;20005;-91
2020/12/29 07:39:57;;;;;;;4.22;2.17;;;23.90;90.50;;;;;;6052839;23;20066;-90
2020/12/29 07:42:23;;;;;;;5.53;2.17;;;23.80;90.70;;;;;;6077999;23;20058;-91
2020/12/29 07:44:50;;;;;;;3.55;1.75;;;23.80;91.30;;;;;;6054065;23;20006;-91
2020/12/29 07:47:16;;;;;;;5.13;1.80;;;23.70;91.60;;;;;;6052554;23;20003;-90
2020/12/29 07:49:43;;;;;;;4.93;1.90;;;23.80;91.40;;;;;;6053496;23;19999;-91
2020/12/29 07:52:20;;;;;;;3.28;1.95;;;23.60;92.10;;;;;;6053674;23;20022;-92
2020/12/29 07:54:47;;;;;;;24.50;3.17;;;23.40;92.80;;;;;;6052220;23;20062;-91
2020/12/29 07:57:13;;;;;;;15.25;2.88;;;23.20;93.40;;;;;;6079392;23;20001;-90
2020/12/29 07:59:40;;;;;;;10.40;2.28;;;23.20;93.40;;;;;;6079289;23;20010;-91
2020/12/29 08:02:09;;;;;;;8.00;1.88;;;23.20;93.70;;;;;;6054142;23;20078;-92
2020/12/29 08:04:35;;;;;;;3.17;1.80;;;23.10;94.10;;;;;;6054028;23;20136;-92
2020/12/29 08:07:09;;;;;;;3.92;2.28;;;23.10;92.70;;;;;;6054020;23;20287;-91
2020/12/29 08:09:47;;;;;;;2.97;1.70;;;23.30;92.90;;;;;;6053194;23;20050;-90
2020/12/29 08:12:20;;;;;;;5.32;1.85;;;23.40;92.60;;;;;;6079478;23;20070;-90
2020/12/29 08:15:33;;;;;;;4.05;2.03;;;23.40;91.60;;;;;;6053990;23;20241;-93
2020/12/29 08:18:06;;;;;;;6.78;2.22;;;23.50;92.00;;;;;;5990529;24;20004;-91
2020/12/29 08:20:40;;;;;;;4.32;2.00;;;23.50;92.50;;;;;;5968441;23;19996;-91
2020/12/29 08:23:07;;;;;;;3.63;1.98;;;23.40;91.70;;;;;;5991123;24;20012;-90
2020/12/29 08:25:34;;;;;;;6.95;1.88;;;23.40;92.80;;;;;;5968868;24;20000;-91
2020/12/29 08:28:03;;;;;;;5.50;2.10;;;23.50;92.10;;;;;;5967993;24;20012;-91
2020/12/29 08:30:31;;;;;;;4.20;2.08;;;23.40;92.30;;;;;;5969624;24;20024;-89
2020/12/29 08:32:59;;;;;;;3.45;2.10;;;23.40;92.80;;;;;;5972081;24;20008;-90
2020/12/29 08:35:26;;;;;;;3.33;2.00;;;23.40;92.80;;;;;;5972236;24;20023;-90
2020/12/29 08:38:34;;;;;;;8.55;2.25;;;23.20;93.50;;;;;;5969062;24;20192;-93
2020/12/29 08:41:06;;;;;;;5.38;1.80;;;23.20;92.70;;;;;;5969405;24;20003;-88
2020/12/29 08:43:43;;;;;;;3.28;2.30;;;23.30;93.00;;;;;;5967949;24;20004;-90
2020/12/29 08:46:13;;;;;;;4.03;1.95;;;23.30;93.40;;;;;;5968938;24;20012;-91
2020/12/29 08:48:41;;;;;;;4.20;2.08;;;23.30;92.70;;;;;;5993235;24;20079;-95
2020/12/29 08:51:19;;;;;;;2.10;1.90;;;23.30;92.80;;;;;;5969304;24;20059;-90
2020/12/29 08:53:45;;;;;;;6.40;1.88;;;23.20;93.30;;;;;;5969772;24;20157;-94
2020/12/29 08:56:25;;;;;;;2.97;2.05;;;23.30;92.90;;;;;;5969586;24;20031;-91
2020/12/29 08:58:53;;;;;;;4.88;2.10;;;23.30;92.20;;;;;;5968752;24;20023;-91
2020/12/29 09:01:42;;;;;;;3.35;2.10;;;23.40;92.80;;;;;;5968431;24;20004;-91
2020/12/29 09:04:43;;;;;;;3.58;2.00;;;23.40;93.10;;;;;;5968392;24;20008;-89
2020/12/29 09:07:12;;;;;;;5.07;2.22;;;23.30;92.60;;;;;;5968215;24;20012;-89
2020/12/29 09:09:53;;;;;;;5.22;2.20;;;23.30;93.00;;;;;;5968844;24;20197;-91
2020/12/29 09:12:35;;;;;;;7.40;2.40;;;23.30;93.30;;;;;;5969253;24;20313;-92
2020/12/29 09:15:04;;;;;;;2.83;2.10;;;23.30;93.30;;;;;;5970366;24;20000;-91
2020/12/29 09:17:44;;;;;;;4.68;2.40;;;23.30;93.10;;;;;;5970942;24;20004;-93
2020/12/29 09:20:21;;;;;;;4.65;2.40;;;23.20;93.20;;;;;;5995352;23;19995;-94
2020/12/29 09:22:57;;;;;;;3.03;1.95;;;23.20;93.30;;;;;;6055593;23;20062;-94
2020/12/29 09:25:26;;;;;;;3.92;2.20;;;23.20;92.90;;;;;;6055464;23;20014;-91
2020/12/29 09:28:16;;;;;;;2.97;2.00;;;23.10;93.00;;;;;;6054932;23;20315;-90
2020/12/29 09:31:07;;;;;;;5.40;2.53;;;23.10;92.70;;;;;;6055510;23;20013;-90
2020/12/29 09:33:36;;;;;;;3.60;1.70;;;23.00;92.80;;;;;;6082240;23;20043;-90
2020/12/29 09:36:05;;;;;;;4.38;2.10;;;23.00;92.70;;;;;;6055436;23;20006;-90
2020/12/29 09:38:35;;;;;;;3.17;2.03;;;22.90;92.80;;;;;;6055800;23;20023;-90
2020/12/29 09:41:03;;;;;;;3.80;2.03;;;23.00;92.80;;;;;;6080791;23;19991;-91
2020/12/29 09:43:30;;;;;;;3.05;2.10;;;23.00;92.80;;;;;;6055201;23;20010;-92
2020/12/29 09:45:57;;;;;;;3.70;1.60;;;23.00;92.80;;;;;;6053650;23;20005;-89
2020/12/29 09:48:24;;;;;;;3.22;2.00;;;23.00;92.70;;;;;;6081050;23;20003;-92
2020/12/29 09:50:51;;;;;;;3.53;2.00;;;22.90;92.70;;;;;;6055197;23;20033;-91
2020/12/29 09:53:17;;;;;;;2.90;2.28;;;22.90;92.80;;;;;;6081074;23;20160;-91
2020/12/29 09:55:44;;;;;;;5.35;2.00;;;23.00;93.00;;;;;;6055601;23;20047;-90
2020/12/29 09:58:11;;;;;;;3.53;2.10;;;22.90;92.90;;;;;;6090298;23;20063;-91
2020/12/29 10:00:38;;;;;;;2.58;1.90;;;22.90;92.60;;;;;;6061599;23;20047;-90
2020/12/29 10:03:04;;;;;;;6.32;2.30;;;22.90;92.70;;;;;;6084747;23;20003;-91
2020/12/29 10:05:31;;;;;;;4.72;1.85;;;23.00;92.50;;;;;;6055690;23;20011;-91
2020/12/29 10:07:58;;;;;;;6.05;2.28;;;23.00;92.50;;;;;;6055451;23;20017;-91
2020/12/29 10:10:24;;;;;;;2.63;1.60;;;22.90;92.30;;;;;;6054750;23;19999;-90
2020/12/29 10:12:51;;;;;;;3.38;2.20;;;23.00;92.20;;;;;;6055114;23;20031;-90
2020/12/29 10:15:33;;;;;;;2.85;2.08;;;23.00;92.40;;;;;;6055020;23;20058;-90
2020/12/29 10:18:00;;;;;;;3.28;1.88;;;23.00;91.90;;;;;;6054498;23;20014;-90
2020/12/29 10:20:27;;;;;;;3.60;1.50;;;23.00;91.70;;;;;;6080802;23;20045;-91
2020/12/29 10:22:53;;;;;;;5.35;1.77;;;23.00;91.60;;;;;;6056183;23;20191;-90
2020/12/29 10:25:20;;;;;;;3.25;1.58;;;23.00;91.70;;;;;;6055140;23;20002;-90
2020/12/29 10:27:47;;;;;;;3.40;2.10;;;23.00;91.70;;;;;;6054815;23;20031;-91
2020/12/29 10:30:14;;;;;;;2.10;1.70;;;22.90;91.70;;;;;;6055406;23;20010;-89
2020/12/29 10:32:41;;;;;;;8.05;1.75;;;22.90;91.70;;;;;;6082780;23;20003;-88
2020/12/29 10:35:12;;;;;;;4.95;1.98;;;22.90;91.60;;;;;;6064820;23;20015;-92
2020/12/29 10:37:38;;;;;;;4.93;2.35;;;22.80;91.70;;;;;;6080896;23;20002;-90
2020/12/29 10:40:05;;;;;;;7.00;1.95;;;22.70;91.80;;;;;;6083248;23;20046;-90
2020/12/29 10:42:32;;;;;;;3.00;1.80;;;22.70;91.90;;;;;;6067965;23;20007;-85
2020/12/29 10:45:02;;;;;;;3.03;1.80;;;22.70;91.90;;;;;;6061028;23;20045;-89
2020/12/29 10:47:28;;;;;;;4.35;1.80;;;22.70;91.90;;;;;;6064584;23;20006;-87
2020/12/29 10:49:55;;;;;;;4.57;2.05;;;22.60;92.20;;;;;;6087951;23;19999;-88
2020/12/29 10:52:21;;;;;;;3.78;1.45;;;22.60;92.00;;;;;;6085071;23;20070;-91
2020/12/29 10:54:48;;;;;;;6.05;2.10;;;22.60;92.00;;;;;;6078199;23;19999;-90
2020/12/29 10:57:17;;;;;;;6.40;2.08;;;22.70;91.90;;;;;;6080233;23;20006;-90
2020/12/29 10:59:44;;;;;;;5.15;1.85;;;22.60;91.90;;;;;;6079798;23;20015;-91
2020/12/29 11:02:11;;;;;;;2.45;1.50;;;22.70;91.90;;;;;;6054577;23;20025;-90
2020/12/29 11:04:37;;;;;;;4.22;1.63;;;22.60;92.00;;;;;;6079110;23;19999;-93
2020/12/29 11:07:04;;;;;;;7.57;1.80;;;22.60;92.10;;;;;;6080276;23;20003;-90
2020/12/29 11:09:30;;;;;;;3.97;1.95;;;22.60;92.00;;;;;;6079311;23;20034;-89
2020/12/29 11:11:57;;;;;;;6.70;2.08;;;22.60;92.00;;;;;;6053835;23;20019;-92
2020/12/29 11:14:24;;;;;;;3.20;2.22;;;22.60;91.90;;;;;;6054434;23;20199;-92
2020/12/29 11:16:50;;;;;;;11.00;2.67;;;22.60;91.80;;;;;;6054044;23;20002;-92
2020/12/29 11:19:17;;;;;;;12.68;4.85;;;22.70;91.80;;;;;;6053758;23;19999;-91
2020/12/29 11:21:47;;;;;;;10.52;6.85;;;22.70;91.80;;;;;;6079742;23;20003;-92
2020/12/29 11:24:16;;;;;;;15.32;8.45;;;22.70;91.60;;;;;;6054046;23;20005;-91
2020/12/29 11:26:43;;;;;;;15.55;8.27;;;22.70;91.60;;;;;;6079261;23;19999;-91
2020/12/29 11:29:10;;;;;;;14.90;8.00;;;22.70;91.60;;;;;;6053640;23;20223;-91
2020/12/29 11:31:38;;;;;;;23.13;7.60;;;22.80;91.80;;;;;;6053829;23;20078;-90
2020/12/29 11:34:05;;;;;;;10.95;6.07;;;22.80;91.70;;;;;;6054069;23;20006;-91
2020/12/29 11:36:31;;;;;;;7.55;4.93;;;22.90;91.90;;;;;;6079520;23;20007;-92
2020/12/29 11:38:58;;;;;;;7.40;3.47;;;22.90;91.70;;;;;;6053817;23;20018;-91
2020/12/29 11:41:25;;;;;;;11.15;2.63;;;23.00;91.40;;;;;;6053718;23;19998;-92
2020/12/29 11:43:51;;;;;;;6.43;2.72;;;23.10;91.10;;;;;;6054365;23;19999;-92
2020/12/29 11:46:18;;;;;;;6.95;2.90;;;23.20;91.20;;;;;;6054827;23;20005;-92
2020/12/29 11:48:45;;;;;;;8.02;2.60;;;23.20;90.90;;;;;;6054742;23;20003;-92
2020/12/29 11:51:11;;;;;;;9.95;2.97;;;23.30;91.00;;;;;;6052995;23;20164;-91
2020/12/29 11:53:39;;;;;;;6.70;2.28;;;23.40;90.40;;;;;;6078639;23;20009;-93
2020/12/29 11:56:10;;;;;;;14.73;3.63;;;23.60;90.20;;;;;;6054486;23;19995;-94
2020/12/29 11:58:37;;;;;;;9.10;4.25;;;23.70;90.00;;;;;;6055316;23;19999;-92
2020/12/29 12:01:06;;;;;;;8.00;4.00;;;23.90;90.00;;;;;;6081606;23;20129;-92
2020/12/29 12:03:33;;;;;;;9.82;3.95;;;24.10;89.30;;;;;;6055298;23;19998;-91
2020/12/29 12:06:08;;;;;;;9.13;3.20;;;24.20;88.50;;;;;;6054240;23;20010;-89
2020/12/29 12:08:35;;;;;;;5.90;2.50;;;24.30;86.50;;;;;;6079499;23;20275;-89
2020/12/29 12:11:08;;;;;;;6.55;2.53;;;24.50;86.50;;;;;;6078224;23;20002;-91
2020/12/29 12:13:34;;;;;;;4.15;2.40;;;24.60;85.60;;;;;;6053894;23;20026;-90
2020/12/29 12:16:03;;;;;;;5.05;2.05;;;24.70;85.60;;;;;;6082212;23;20006;-90
2020/12/29 12:18:31;;;;;;;8.32;2.22;;;24.80;84.70;;;;;;6058210;23;19999;-91
2020/12/29 12:21:00;;;;;;;9.02;2.50;;;24.90;85.10;;;;;;6032509;23;20168;-90
2020/12/29 12:23:27;;;;;;;7.13;2.28;;;25.00;85.40;;;;;;6056212;23;20009;-91
2020/12/29 12:25:54;;;;;;;7.07;1.98;;;25.20;85.10;;;;;;6054391;23;20066;-91
2020/12/29 12:28:20;;;;;;;9.38;1.98;;;25.30;83.90;;;;;;6054697;23;20010;-85
2020/12/29 12:30:47;;;;;;;6.03;2.08;;;25.50;84.10;;;;;;6054266;23;20007;-86
2020/12/29 12:33:40;;;;;;;4.82;1.73;;;25.70;82.30;;;;;;6053983;23;19999;-90
2020/12/29 12:36:07;;;;;;;8.90;1.77;;;25.90;82.80;;;;;;6054110;23;20057;-91
2020/12/29 12:38:34;;;;;;;8.50;1.55;;;26.10;81.60;;;;;;6053901;23;20003;-91
2020/12/29 12:41:02;;;;;;;3.72;1.33;;;26.20;80.40;;;;;;6054080;23;19997;-90
2020/12/29 12:43:29;;;;;;;2.72;1.30;;;26.40;79.80;;;;;;6054185;23;19994;-91
2020/12/29 12:45:56;;;;;;;6.82;1.48;;;26.50;79.60;;;;;;6078118;23;19999;-91
2020/12/29 12:48:23;;;;;;;4.10;1.52;;;26.60;81.00;;;;;;6054728;23;19999;-92
2020/12/29 12:50:50;;;;;;;4.95;2.08;;;26.80;80.40;;;;;;6032831;23;20239;-91
2020/12/29 12:53:17;;;;;;;3.78;1.70;;;26.90;80.40;;;;;;6054305;23;20058;-92
2020/12/29 12:55:44;;;;;;;7.85;1.90;;;27.00;79.80;;;;;;6056073;23;19998;-93
2020/12/29 12:58:10;;;;;;;4.72;1.85;;;27.10;79.00;;;;;;6058463;23;20001;-91
2020/12/29 13:00:42;;;;;;;5.05;1.92;;;27.30;79.20;;;;;;6081653;23;20287;-92
2020/12/29 13:03:10;;;;;;;7.97;1.90;;;27.60;77.70;;;;;;6081118;23;20002;-89
2020/12/29 13:05:36;;;;;;;5.32;1.35;;;27.70;77.20;;;;;;6055817;23;20036;-89
2020/12/29 13:08:03;;;;;;;3.42;1.52;;;27.70;75.80;;;;;;6055961;23;20049;-89
2020/12/29 13:10:29;;;;;;;4.35;1.58;;;27.80;75.90;;;;;;6056735;23;20306;-91
2020/12/29 13:12:56;;;;;;;4.40;1.35;;;27.90;75.70;;;;;;6055447;23;20019;-89
2020/12/29 13:15:23;;;;;;;4.85;1.40;;;28.00;74.80;;;;;;6055992;23;20191;-88
2020/12/29 13:17:49;;;;;;;2.55;1.40;;;28.20;74.70;;;;;;6056135;23;20058;-91
2020/12/29 13:20:16;;;;;;;1.63;1.15;;;28.60;74.40;;;;;;6080521;23;20002;-93
2020/12/29 13:22:43;;;;;;;5.03;1.52;;;28.70;72.00;;;;;;6080186;23;20275;-89
2020/12/29 13:25:10;;;;;;;4.25;1.60;;;28.80;73.90;;;;;;6081486;23;20003;-88
2020/12/29 13:27:37;;;;;;;7.47;1.80;;;28.90;72.30;;;;;;6079598;23;20181;-88
2020/12/29 13:30:05;;;;;;;6.57;1.45;;;29.10;72.40;;;;;;6081562;23;20002;-88
2020/12/29 13:32:36;;;;;;;6.65;1.30;;;29.30;71.30;;;;;;6080422;23;19999;-89
2020/12/29 13:35:04;;;;;;;3.38;1.73;;;29.60;71.30;;;;;;6055624;23;20006;-92
2020/12/29 13:37:31;;;;;;;6.43;1.15;;;29.80;70.90;;;;;;6055784;23;20026;-90
2020/12/29 13:39:59;;;;;;;5.38;1.65;;;29.60;69.70;;;;;;6080991;23;19995;-89
2020/12/29 13:42:26;;;;;;;6.60;1.20;;;29.70;70.40;;;;;;6081068;23;20046;-87
2020/12/29 13:44:53;;;;;;;4.35;1.40;;;29.60;68.70;;;;;;6081427;23;19999;-87
2020/12/29 13:47:20;;;;;;;6.57;1.38;;;29.40;69.70;;;;;;6079899;23;20003;-87
2020/12/29 13:49:47;;;;;;;3.40;1.30;;;29.30;69.50;;;;;;6083118;23;19995;-88
2020/12/29 13:52:15;;;;;;;2.63;1.15;;;29.30;70.20;;;;;;6056955;23;20010;-89
2020/12/29 13:54:42;;;;;;;4.35;1.48;;;29.70;69.60;;;;;;6056624;23;20006;-87
2020/12/29 13:57:08;;;;;;;5.88;1.90;;;30.10;68.60;;;;;;6081857;23;20043;-88
2020/12/29 13:59:35;;;;;;;3.03;1.10;;;30.30;68.10;;;;;;6081718;23;19991;-88
2020/12/29 14:02:02;;;;;;;1.80;1.00;;;30.40;66.40;;;;;;6081254;23;19991;-87
2020/12/29 14:04:28;;;;;;;3.53;0.95;;;30.40;66.00;;;;;;6082738;23;20002;-89
2020/12/29 14:06:56;;;;;;;2.65;1.10;;;30.40;67.10;;;;;;6081676;23;20048;-89